createdAt,value
2018-02-16T00:00:56.227Z,98.10
2018-02-16T00:03:30.912Z,98.70
2018-02-16T00:06:05.412Z,98.80
2018-02-16T00:08:39.030Z,98.80
2018-02-16T00:11:13.898Z,98.90
2018-02-16T00:13:47.743Z,99.00
2018-02-16T00:16:22.409Z,99.30
2018-02-16T00:18:57.001Z,99.50
2018-02-16T00:21:31.863Z,99.40
2018-02-16T00:24:05.954Z,99.40
2018-02-16T00:26:39.952Z,99.30
2018-02-16T00:29:14.677Z,99.10
2018-02-16T00:31:49.300Z,98.90
2018-02-16T00:34:23.832Z,99.00
2018-02-16T00:36:58.252Z,99.10
2018-02-16T00:39:32.146Z,99.30
2018-02-16T00:42:07.099Z,99.20
2018-02-16T00:44:40.880Z,99.20
2018-02-16T00:47:15.115Z,99.20
2018-02-16T00:49:48.815Z,99.20
2018-02-16T00:52:24.043Z,99.20
2018-02-16T00:54:57.975Z,99.10
2018-02-16T00:57:31.743Z,99.10
2018-02-16T01:00:05.952Z,99.10
2018-02-16T01:02:40.584Z,98.90
2018-02-16T01:05:14.802Z,98.90
2018-02-16T01:07:49.207Z,98.40
2018-02-16T01:10:24.459Z,98.50
2018-02-16T01:12:58.153Z,98.60
2018-02-16T01:15:32.784Z,98.80
2018-02-16T01:18:06.895Z,98.70
2018-02-16T01:20:41.553Z,98.90
2018-02-16T01:23:15.331Z,98.90
2018-02-16T01:25:49.232Z,99.10
2018-02-16T01:28:24.778Z,99.40
2018-02-16T01:30:58.583Z,99.40
2018-02-16T01:33:32.698Z,99.50
2018-02-16T01:36:07.008Z,99.50
2018-02-16T01:38:40.634Z,99.50
2018-02-16T01:41:16.261Z,99.60
2018-02-16T01:43:50.167Z,99.50
2018-02-16T01:46:26.534Z,99.60
2018-02-16T01:49:01.151Z,99.60
2018-02-16T01:51:36.187Z,99.60
2018-02-16T01:54:11.762Z,99.70
2018-02-16T01:56:45.466Z,99.70
2018-02-16T01:59:19.239Z,99.90
2018-02-16T02:01:53.965Z,99.90
2018-02-16T02:04:28.590Z,99.90
2018-02-16T02:07:03.423Z,99.90
2018-02-16T02:09:37.991Z,99.90
2018-02-16T02:12:12.975Z,99.90
2018-02-16T02:14:47.570Z,99.90
2018-02-16T02:17:23.252Z,99.90
2018-02-16T02:19:57.043Z,99.90
2018-02-16T02:22:30.875Z,99.90
2018-02-16T02:25:05.990Z,99.90
2018-02-16T02:27:40.933Z,99.90
2018-02-16T02:30:15.556Z,99.90
2018-02-16T02:32:50.578Z,99.90
2018-02-16T02:35:25.001Z,99.90
2018-02-16T02:37:59.507Z,99.90
2018-02-16T02:40:34.342Z,99.90
2018-02-16T02:43:07.955Z,99.90
2018-02-16T02:45:41.890Z,99.90
2018-02-16T02:48:16.582Z,99.90
2018-02-16T02:50:50.486Z,99.90
2018-02-16T02:53:25.109Z,99.90
2018-02-16T02:55:58.817Z,99.90
2018-02-16T02:58:32.623Z,99.90
2018-02-16T03:01:06.528Z,99.90
2018-02-16T03:03:40.563Z,99.90
2018-02-16T03:06:14.973Z,99.90
2018-02-16T03:08:49.491Z,99.90
2018-02-16T03:11:23.701Z,99.90
2018-02-16T03:13:57.612Z,99.90
2018-02-16T03:16:31.719Z,99.90
2018-02-16T03:19:05.602Z,99.90
2018-02-16T03:21:39.624Z,99.90
2018-02-16T03:24:14.962Z,99.90
2018-02-16T03:26:49.903Z,99.90
2018-02-16T03:29:25.220Z,99.90
2018-02-16T03:32:00.907Z,99.90
2018-02-16T03:34:35.908Z,99.90
2018-02-16T03:37:10.673Z,99.90
2018-02-16T03:39:45.167Z,99.90
2018-02-16T03:42:18.779Z,99.90
2018-02-16T03:44:54.204Z,99.90
2018-02-16T03:47:28.556Z,99.90
2018-02-16T03:50:03.152Z,99.90
2018-02-16T03:52:37.155Z,99.90
2018-02-16T03:55:12.319Z,99.90
2018-02-16T03:57:46.915Z,99.90
2018-02-16T04:00:20.740Z,99.90
2018-02-16T04:02:55.448Z,99.90
2018-02-16T04:05:30.095Z,99.90
2018-02-16T04:08:05.128Z,99.90
2018-02-16T04:10:38.812Z,99.90
2018-02-16T04:13:12.507Z,99.90
2018-02-16T04:15:46.951Z,99.90
2018-02-16T04:18:21.763Z,99.90
2018-02-16T04:20:55.474Z,99.90
2018-02-16T04:23:29.698Z,99.90
2018-02-16T04:26:03.578Z,99.90
2018-02-16T04:28:37.591Z,99.90
2018-02-16T04:31:14.488Z,99.90
2018-02-16T04:33:49.403Z,99.90
2018-02-16T04:36:24.124Z,99.90
2018-02-16T04:38:58.600Z,99.90
2018-02-16T04:41:32.363Z,99.90
2018-02-16T04:44:06.460Z,99.90
2018-02-16T04:46:40.983Z,99.90
2018-02-16T04:49:14.993Z,99.90
2018-02-16T04:51:49.010Z,99.90
2018-02-16T04:54:23.529Z,99.90
2018-02-16T04:56:57.852Z,99.90
2018-02-16T04:59:32.461Z,99.90
2018-02-16T05:02:07.134Z,99.90
2018-02-16T05:04:40.878Z,99.90
2018-02-16T05:07:14.895Z,99.90
2018-02-16T05:09:49.018Z,99.90
2018-02-16T05:12:22.843Z,99.90
2018-02-16T05:14:57.244Z,99.90
2018-02-16T05:17:32.477Z,99.90
2018-02-16T05:20:07.288Z,99.90
2018-02-16T05:22:41.966Z,99.90
2018-02-16T05:25:16.265Z,99.90
2018-02-16T05:27:51.188Z,99.90
2018-02-16T05:30:25.494Z,99.90
2018-02-16T05:32:59.194Z,99.90
2018-02-16T05:35:34.542Z,99.90
2018-02-16T05:38:09.763Z,99.90
2018-02-16T05:40:43.372Z,99.90
2018-02-16T05:43:19.427Z,99.90
2018-02-16T05:45:53.221Z,99.90
2018-02-16T05:48:27.847Z,99.90
2018-02-16T05:51:02.066Z,99.90
2018-02-16T05:53:38.727Z,99.90
2018-02-16T05:56:13.287Z,99.90
2018-02-16T05:58:47.283Z,99.90
2018-02-16T06:01:22.114Z,99.90
2018-02-16T06:03:56.834Z,99.90
2018-02-16T06:06:32.167Z,99.90
2018-02-16T06:09:07.531Z,99.90
2018-02-16T06:11:42.258Z,99.90
2018-02-16T06:14:16.470Z,99.90
2018-02-16T06:16:51.295Z,99.90
2018-02-16T06:19:25.391Z,99.90
2018-02-16T06:21:59.712Z,99.90
2018-02-16T06:24:33.621Z,99.90
2018-02-16T06:27:08.268Z,99.90
2018-02-16T06:29:43.243Z,99.90
2018-02-16T06:32:17.686Z,99.90
2018-02-16T06:34:52.112Z,99.90
2018-02-16T06:37:26.839Z,99.90
2018-02-16T06:40:01.038Z,99.90
2018-02-16T06:42:35.383Z,99.90
2018-02-16T06:45:10.713Z,99.90
2018-02-16T06:47:45.600Z,99.90
2018-02-16T06:50:20.467Z,99.90
2018-02-16T06:52:54.485Z,99.90
2018-02-16T06:55:31.989Z,99.90
2018-02-16T06:58:06.283Z,99.90
2018-02-16T07:00:40.991Z,99.90
2018-02-16T07:03:14.692Z,99.90
2018-02-16T07:05:48.900Z,99.90
2018-02-16T07:08:23.460Z,99.90
2018-02-16T07:10:57.991Z,99.90
2018-02-16T07:13:32.288Z,99.90
2018-02-16T07:16:06.520Z,99.90
2018-02-16T07:18:41.151Z,99.90
2018-02-16T07:21:15.135Z,99.90
2018-02-16T07:23:49.479Z,99.80
2018-02-16T07:26:23.884Z,99.60
2018-02-16T07:28:57.978Z,99.60
2018-02-16T07:31:32.316Z,99.80
2018-02-16T07:34:06.931Z,99.80
2018-02-16T07:36:41.554Z,98.20
2018-02-16T07:39:16.597Z,97.80
2018-02-16T07:41:51.631Z,98.20
2018-02-16T07:44:25.727Z,98.20
2018-02-16T07:47:01.566Z,97.40
2018-02-16T07:49:35.392Z,97.40
2018-02-16T07:52:09.379Z,97.60
2018-02-16T07:54:43.802Z,96.50
2018-02-16T07:57:18.451Z,96.30
2018-02-16T07:59:53.690Z,95.70
2018-02-16T08:02:28.312Z,95.70
2018-02-16T08:05:03.640Z,95.90
2018-02-16T08:07:39.099Z,95.90
2018-02-16T08:10:13.912Z,96.00
2018-02-16T08:12:49.882Z,96.30
2018-02-16T08:15:23.775Z,96.60
2018-02-16T08:17:59.103Z,96.20
2018-02-16T08:20:33.238Z,96.20
2018-02-16T08:23:08.029Z,96.20
2018-02-16T08:25:41.849Z,96.20
2018-02-16T08:28:16.475Z,96.20
2018-02-16T08:30:51.207Z,95.60
2018-02-16T08:33:25.342Z,95.60
2018-02-16T08:36:00.370Z,95.30
2018-02-16T08:38:34.253Z,95.30
2018-02-16T08:41:08.671Z,95.10
2018-02-16T08:43:43.300Z,94.70
2018-02-16T08:46:18.024Z,94.70
2018-02-16T08:48:52.456Z,94.50
2018-02-16T08:51:26.442Z,94.50
2018-02-16T08:54:00.390Z,94.40
2018-02-16T08:56:34.595Z,95.30
2018-02-16T08:59:08.896Z,95.10
2018-02-16T09:01:43.417Z,94.70
2018-02-16T09:04:18.259Z,94.60
2018-02-16T09:06:52.262Z,94.70
2018-02-16T09:09:27.687Z,95.00
2018-02-16T09:12:02.318Z,94.10
2018-02-16T09:14:37.377Z,93.00
2018-02-16T09:17:11.986Z,93.70
2018-02-16T09:19:47.335Z,93.00
2018-02-16T09:22:21.218Z,93.00
2018-02-16T09:24:55.047Z,94.50
2018-02-16T09:27:30.034Z,93.70
2018-02-16T09:30:04.784Z,93.80
2018-02-16T09:32:39.219Z,93.90
2018-02-16T09:35:13.750Z,92.20
2018-02-16T09:37:48.986Z,92.70
2018-02-16T09:40:23.481Z,91.70
2018-02-16T09:42:58.829Z,91.40
2018-02-16T09:45:32.446Z,91.40
2018-02-16T09:48:07.253Z,91.60
2018-02-16T09:50:41.911Z,91.10
2018-02-16T09:53:16.424Z,91.10
2018-02-16T09:55:51.306Z,90.90
2018-02-16T09:58:24.994Z,90.90
2018-02-16T10:00:59.367Z,91.30
2018-02-16T10:03:33.175Z,91.30
2018-02-16T10:06:08.187Z,91.80
2018-02-16T10:08:42.506Z,92.10
2018-02-16T10:11:16.311Z,92.10
2018-02-16T10:13:51.545Z,90.30
2018-02-16T10:16:25.397Z,90.20
2018-02-16T10:18:59.479Z,92.30
2018-02-16T10:21:33.155Z,92.50
2018-02-16T10:24:07.786Z,91.40
2018-02-16T10:26:42.529Z,80.30
2018-02-16T10:29:16.744Z,80.40
2018-02-16T10:31:51.138Z,85.40
2018-02-16T10:34:25.669Z,81.90
2018-02-16T10:36:59.783Z,82.10
2018-02-16T10:39:35.428Z,82.30
2018-02-16T10:42:09.454Z,81.90
2018-02-16T10:44:43.441Z,84.30
2018-02-16T10:47:17.155Z,81.50
2018-02-16T10:49:51.781Z,80.90
2018-02-16T10:52:26.893Z,84.20
2018-02-16T10:55:01.551Z,84.40
2018-02-16T10:57:35.334Z,84.40
2018-02-16T11:00:10.169Z,81.10
2018-02-16T11:02:49.599Z,80.90
2018-02-16T11:18:49.486Z,83.50
2018-02-16T11:21:23.402Z,83.60
2018-02-16T11:24:00.073Z,87.20
2018-02-16T11:26:33.772Z,87.20
2018-02-16T11:29:08.502Z,83.90
2018-02-16T11:31:43.218Z,82.10
2018-02-16T11:34:19.592Z,83.90
2018-02-16T11:36:54.224Z,83.60
2018-02-16T11:39:29.162Z,84.80
2018-02-16T11:42:02.758Z,84.80
2018-02-16T11:44:36.755Z,85.20
2018-02-16T11:47:11.891Z,84.20
2018-02-16T11:49:45.965Z,82.60
2018-02-16T11:52:20.718Z,82.40
2018-02-16T11:54:55.778Z,83.30
2018-02-16T11:57:30.684Z,85.80
2018-02-16T12:00:04.696Z,85.80
2018-02-16T12:02:38.708Z,87.10
2018-02-16T12:05:13.240Z,86.90
2018-02-16T12:07:48.988Z,83.50
2018-02-16T12:10:22.906Z,83.50
2018-02-16T12:12:58.440Z,81.10
2018-02-16T12:15:33.911Z,83.80
2018-02-16T12:18:09.130Z,83.70
2018-02-16T12:20:42.911Z,80.30
2018-02-16T12:23:18.450Z,78.90
2018-02-16T12:25:53.310Z,77.50
2018-02-16T12:28:27.217Z,77.60
2018-02-16T12:31:01.423Z,76.30
2018-02-16T12:33:35.319Z,81.30
2018-02-16T12:36:10.764Z,81.50
2018-02-16T12:38:45.387Z,80.20
2018-02-16T12:41:20.127Z,80.10
2018-02-16T12:43:54.739Z,81.00
2018-02-16T12:46:29.261Z,77.20
2018-02-16T12:49:03.684Z,78.30
2018-02-16T12:51:38.611Z,75.50
2018-02-16T12:54:14.949Z,76.20
2018-02-16T12:56:51.434Z,79.10
2018-02-16T12:59:25.472Z,79.20
2018-02-16T13:02:00.357Z,74.30
2018-02-16T13:04:34.902Z,73.40
2018-02-16T13:07:10.370Z,72.00
2018-02-16T13:09:45.392Z,70.10
2018-02-16T13:12:20.116Z,70.10
2018-02-16T13:14:53.899Z,70.30
2018-02-16T13:17:29.142Z,73.10
2018-02-16T13:20:03.532Z,73.90
2018-02-16T13:22:37.279Z,73.90
2018-02-16T13:25:11.583Z,71.70
2018-02-16T13:27:46.062Z,74.40
2018-02-16T13:30:20.630Z,75.50
2018-02-16T13:32:55.165Z,75.20
2018-02-16T13:35:29.357Z,75.20
2018-02-16T13:38:03.373Z,75.60
2018-02-16T13:40:37.758Z,75.00
2018-02-16T13:43:11.595Z,75.90
2018-02-16T13:45:45.186Z,76.50
2018-02-16T13:48:19.814Z,80.30
2018-02-16T13:50:53.426Z,80.20
2018-02-16T13:53:28.263Z,78.50
2018-02-16T13:56:02.459Z,78.40
2018-02-16T13:58:38.306Z,78.60
2018-02-16T14:01:12.747Z,78.60
2018-02-16T14:03:47.040Z,77.90
2018-02-16T14:06:20.748Z,77.90
2018-02-16T14:08:54.551Z,76.80
2018-02-16T14:11:31.171Z,77.60
2018-02-16T14:14:06.466Z,78.00
2018-02-16T14:16:41.706Z,78.00
2018-02-16T14:19:15.606Z,80.00
2018-02-16T14:21:49.445Z,77.40
2018-02-16T14:24:23.530Z,78.10
2018-02-16T14:26:57.436Z,78.10
2018-02-16T14:29:31.858Z,79.90
2018-02-16T14:32:06.066Z,78.10
2018-02-16T14:34:41.314Z,77.40
2018-02-16T14:37:15.562Z,77.40
2018-02-16T14:39:50.048Z,77.00
2018-02-16T14:42:24.258Z,78.60
2018-02-16T14:44:58.666Z,79.00
2018-02-16T14:47:32.487Z,78.00
2018-02-16T14:50:07.903Z,78.50
2018-02-16T14:52:42.455Z,77.80
2018-02-16T14:55:16.852Z,77.70
2018-02-16T14:57:50.873Z,77.60
2018-02-16T15:00:26.422Z,77.30
2018-02-16T15:03:00.243Z,79.20
2018-02-16T15:05:34.947Z,79.40
2018-02-16T15:08:09.986Z,78.30
2018-02-16T15:10:43.997Z,78.30
2018-02-16T15:13:19.748Z,78.30
2018-02-16T15:15:53.759Z,78.30
2018-02-16T15:18:29.009Z,78.70
2018-02-16T15:21:03.488Z,78.50
2018-02-16T15:23:39.029Z,78.50
2018-02-16T15:26:13.667Z,78.60
2018-02-16T15:28:49.952Z,77.60
2018-02-16T15:31:23.745Z,77.60
2018-02-16T15:33:59.464Z,77.60
2018-02-16T15:36:34.517Z,78.90
2018-02-16T15:39:10.389Z,78.90
2018-02-16T15:41:44.196Z,77.70
2018-02-16T15:44:20.265Z,79.30
2018-02-16T15:46:55.079Z,79.30
2018-02-16T15:49:30.017Z,79.70
2018-02-16T15:52:04.337Z,79.70
2018-02-16T15:54:39.451Z,79.70
2018-02-16T15:57:14.121Z,79.70
2018-02-16T15:59:49.827Z,81.70
2018-02-16T16:02:23.649Z,81.60
2018-02-16T16:05:00.738Z,81.20
2018-02-16T16:07:34.797Z,81.30
2018-02-16T16:10:09.955Z,81.70
2018-02-16T16:12:44.383Z,83.90
2018-02-16T16:15:18.893Z,84.00
2018-02-16T16:17:53.320Z,85.90
2018-02-16T16:20:28.308Z,86.40
2018-02-16T16:23:02.763Z,86.20
2018-02-16T16:25:37.801Z,86.20
2018-02-16T16:28:12.735Z,87.10
2018-02-16T16:30:47.590Z,87.20
2018-02-16T16:33:22.396Z,87.10
2018-02-16T16:35:58.251Z,87.40
2018-02-16T16:38:32.252Z,87.50
2018-02-16T16:41:06.987Z,89.20
2018-02-16T16:43:42.965Z,88.90
2018-02-16T16:46:17.065Z,89.00
2018-02-16T16:48:51.176Z,89.00
2018-02-16T16:51:26.011Z,89.40
2018-02-16T16:54:01.125Z,90.20
2018-02-16T16:56:34.824Z,90.20
2018-02-16T16:59:08.750Z,90.50
2018-02-16T17:01:43.062Z,91.00
2018-02-16T17:04:17.071Z,91.00
2018-02-16T17:06:51.284Z,91.30
2018-02-16T17:09:25.185Z,91.20
2018-02-16T17:12:02.282Z,91.60
2018-02-16T17:14:36.478Z,91.60
2018-02-16T17:17:11.520Z,91.60
2018-02-16T17:19:45.422Z,91.90
2018-02-16T17:22:20.354Z,92.40
2018-02-16T17:24:55.492Z,92.70
2018-02-16T17:27:29.704Z,92.80
2018-02-16T17:30:03.596Z,93.40
2018-02-16T17:32:38.559Z,92.70
2018-02-16T17:35:12.356Z,92.70
2018-02-16T17:37:46.614Z,92.80
2018-02-16T17:40:21.078Z,92.60
2018-02-16T17:42:55.494Z,94.20
2018-02-16T17:45:29.817Z,94.20
2018-02-16T17:48:03.738Z,93.90
2018-02-16T17:50:38.686Z,93.20
2018-02-16T17:53:13.502Z,93.00
2018-02-16T17:55:47.909Z,93.00
2018-02-16T17:58:23.232Z,93.10
2018-02-16T18:00:57.797Z,93.10
2018-02-16T18:03:31.669Z,93.10
2018-02-16T18:06:06.692Z,93.80
2018-02-16T18:08:44.297Z,93.80
2018-02-16T18:11:19.225Z,93.90
2018-02-16T18:13:53.029Z,94.00
2018-02-16T18:16:28.493Z,94.10
2018-02-16T18:19:02.592Z,93.80
2018-02-16T18:21:36.807Z,93.60
2018-02-16T18:24:11.533Z,93.80
2018-02-16T18:26:49.442Z,95.50
2018-02-16T18:29:23.455Z,95.50
2018-02-16T18:31:58.745Z,96.10
2018-02-16T18:34:32.394Z,96.10
2018-02-16T18:37:07.215Z,95.60
2018-02-16T18:39:41.848Z,95.30
2018-02-16T18:42:15.747Z,95.20
2018-02-16T18:44:50.362Z,94.70
2018-02-16T18:47:24.062Z,94.70
2018-02-16T18:49:58.872Z,94.80
2018-02-16T18:52:32.965Z,94.80
2018-02-16T18:55:08.152Z,94.80
2018-02-16T18:57:42.049Z,95.10
2018-02-16T19:00:27.727Z,95.20
2018-02-16T19:03:05.034Z,94.90
2018-02-16T19:05:41.820Z,95.00
2018-02-16T19:08:16.769Z,95.20
2018-02-16T19:10:51.254Z,95.30
2018-02-16T19:13:25.658Z,95.30
2018-02-16T19:15:59.770Z,95.80
2018-02-16T19:18:34.520Z,96.30
2018-02-16T19:21:11.960Z,95.40
2018-02-16T19:23:48.346Z,95.10
2018-02-16T19:26:23.094Z,95.60
2018-02-16T19:28:57.193Z,95.60
2018-02-16T19:31:32.732Z,95.00
2018-02-16T19:34:06.546Z,95.00
2018-02-16T19:36:42.900Z,95.00
2018-02-16T19:39:17.747Z,95.70
2018-02-16T19:41:53.081Z,95.60
2018-02-16T19:44:28.021Z,96.70
2018-02-16T19:47:03.135Z,96.80
2018-02-16T19:49:37.350Z,96.80
2018-02-16T19:52:12.905Z,96.70
2018-02-16T19:54:48.637Z,96.80
2018-02-16T19:57:23.175Z,95.80
2018-02-16T20:00:00.764Z,95.80
2018-02-16T20:02:34.572Z,95.90
2018-02-16T20:05:13.740Z,96.40
2018-02-16T20:07:49.273Z,96.70
2018-02-16T20:10:23.775Z,96.70
2018-02-16T20:12:58.395Z,95.60
2018-02-16T20:15:33.321Z,95.50
2018-02-16T20:18:08.255Z,95.60
2018-02-16T20:20:42.770Z,95.60
2018-02-16T20:23:17.433Z,95.80
2018-02-16T20:25:51.201Z,95.90
2018-02-16T20:28:24.899Z,96.50
2018-02-16T20:30:59.145Z,97.50
2018-02-16T20:33:33.239Z,98.60
2018-02-16T20:36:08.055Z,98.40
2018-02-16T20:38:42.787Z,97.20
2018-02-16T20:41:16.588Z,97.20
2018-02-16T20:43:51.119Z,97.10
2018-02-16T20:46:24.907Z,97.10
2018-02-16T20:48:58.722Z,97.30
2018-02-16T20:51:32.631Z,97.70
2018-02-16T20:54:06.418Z,97.60
2018-02-16T20:56:41.586Z,97.80
2018-02-16T20:59:16.735Z,97.90
2018-02-16T21:01:51.861Z,97.90
2018-02-16T21:04:25.625Z,97.70
2018-02-16T21:06:59.368Z,97.60
2018-02-16T21:09:33.967Z,97.20
2018-02-16T21:12:07.995Z,97.20
2018-02-16T21:14:41.980Z,97.70
2018-02-16T21:17:17.256Z,99.20
2018-02-16T21:19:53.702Z,99.20
2018-02-16T21:22:28.019Z,99.20
2018-02-16T21:25:01.737Z,99.30
2018-02-16T21:27:36.842Z,99.20
2018-02-16T21:30:12.703Z,98.10
2018-02-16T21:32:47.834Z,98.00
2018-02-16T21:35:21.643Z,98.00
2018-02-16T21:37:56.808Z,98.40
2018-02-16T21:40:31.707Z,98.40
2018-02-16T21:43:07.337Z,98.40
2018-02-16T21:45:42.260Z,99.30
2018-02-16T21:48:17.366Z,99.10
2018-02-16T21:50:51.342Z,99.20
2018-02-16T21:53:25.658Z,99.10
2018-02-16T21:55:59.439Z,98.80
2018-02-16T21:58:33.347Z,97.70
2018-02-16T22:01:08.478Z,98.70
2018-02-16T22:03:42.210Z,98.70
2018-02-16T22:06:19.062Z,98.90
2018-02-16T22:08:52.980Z,98.90
2018-02-16T22:11:27.703Z,98.80
2018-02-16T22:14:02.224Z,99.40
2018-02-16T22:16:37.544Z,99.90
2018-02-16T22:19:11.279Z,99.90
2018-02-16T22:21:44.914Z,99.90
2018-02-16T22:24:19.293Z,99.70
2018-02-16T22:26:53.187Z,98.50
2018-02-16T22:29:28.324Z,99.90
2018-02-16T22:32:02.332Z,99.90
2018-02-16T22:34:39.024Z,99.90
2018-02-16T22:37:12.820Z,99.90
2018-02-16T22:39:47.416Z,99.90
2018-02-16T22:42:21.559Z,99.90
2018-02-16T22:44:55.581Z,99.10
2018-02-16T22:47:29.272Z,98.40
2018-02-16T22:50:03.280Z,98.40
2018-02-16T22:52:38.662Z,98.20
2018-02-16T22:55:13.440Z,98.20
2018-02-16T22:57:49.090Z,98.20
2018-02-16T23:00:23.195Z,98.10
2018-02-16T23:02:58.241Z,98.60
2018-02-16T23:05:32.044Z,99.10
2018-02-16T23:08:06.251Z,98.90
2018-02-16T23:10:40.895Z,99.00
2018-02-16T23:13:14.803Z,98.90
2018-02-16T23:15:49.908Z,99.40
2018-02-16T23:18:24.356Z,99.30
2018-02-16T23:20:59.346Z,99.60
2018-02-16T23:23:33.178Z,99.60
2018-02-16T23:26:11.594Z,99.90
2018-02-16T23:28:47.333Z,99.90
2018-02-16T23:31:21.348Z,99.90
2018-02-16T23:33:56.082Z,99.90
2018-02-16T23:36:30.701Z,99.90
2018-02-16T23:39:04.699Z,99.90
2018-02-16T23:41:39.437Z,99.90
2018-02-16T23:44:13.394Z,99.90
2018-02-16T23:46:48.318Z,99.90
2018-02-16T23:49:22.227Z,99.90
2018-02-16T23:51:56.851Z,99.90
2018-02-16T23:54:31.678Z,99.90
2018-02-16T23:57:05.793Z,99.90
2018-02-16T23:59:40.425Z,99.90
